createdAt,value
2023-01-19T00:00:40.531Z,-3.63
2023-01-19T00:03:15.789Z,-3.59
2023-01-19T00:05:43.937Z,-3.58
2023-01-19T00:08:15.014Z,-3.56
2023-01-19T00:10:48.165Z,-3.57
2023-01-19T00:13:16.026Z,-3.59
2023-01-19T00:15:43.569Z,-3.60
2023-01-19T00:18:11.315Z,-3.63
2023-01-19T00:20:39.312Z,-3.63
2023-01-19T00:23:08.091Z,-3.64
2023-01-19T00:25:35.832Z,-3.69
2023-01-19T00:28:03.230Z,-3.72
2023-01-19T00:30:30.529Z,-3.65
2023-01-19T00:32:58.489Z,-3.60
2023-01-19T00:35:26.295Z,-3.66
2023-01-19T00:37:53.492Z,-3.59
2023-01-19T00:40:20.798Z,-3.63
2023-01-19T00:42:48.579Z,-3.58
2023-01-19T00:45:19.185Z,-3.54
2023-01-19T00:47:47.057Z,-3.59
2023-01-19T00:50:16.944Z,-3.62
2023-01-19T00:52:45.101Z,-3.56
2023-01-19T00:55:13.949Z,-3.50
2023-01-19T00:57:41.869Z,-3.43
2023-01-19T01:00:14.901Z,-3.43
2023-01-19T01:02:43.325Z,-3.49
2023-01-19T01:05:11.223Z,-3.46
2023-01-19T01:07:40.752Z,-3.38
2023-01-19T01:10:15.878Z,-3.39
2023-01-19T01:12:56.432Z,-3.37
2023-01-19T01:15:26.386Z,-3.48
2023-01-19T01:17:53.764Z,-3.46
2023-01-19T01:20:23.773Z,-3.50
2023-01-19T01:22:55.611Z,-3.58
2023-01-19T01:25:23.853Z,-3.55
2023-01-19T01:27:51.339Z,-3.60
2023-01-19T01:30:19.112Z,-3.53
2023-01-19T01:32:46.319Z,-3.53
2023-01-19T01:35:14.748Z,-3.51
2023-01-19T01:37:42.697Z,-3.71
2023-01-19T01:40:12.355Z,-3.69
2023-01-19T01:42:40.541Z,-3.71
2023-01-19T01:45:30.042Z,-3.76
2023-01-19T01:48:15.021Z,-3.78
2023-01-19T01:51:06.525Z,-3.77
2023-01-19T01:53:34.625Z,-3.77
2023-01-19T01:56:04.582Z,-3.87
2023-01-19T01:58:32.452Z,-3.84
2023-01-19T02:01:18.399Z,-3.95
2023-01-19T02:03:45.752Z,-3.98
2023-01-19T02:06:13.157Z,-3.99
2023-01-19T02:09:21.210Z,-4.02
2023-01-19T02:12:07.150Z,-3.93
2023-01-19T02:14:37.349Z,-3.99
2023-01-19T02:17:05.128Z,-3.91
2023-01-19T02:19:41.221Z,-3.86
2023-01-19T02:22:14.888Z,-3.85
2023-01-19T02:24:42.686Z,-3.85
2023-01-19T02:27:10.401Z,-3.88
2023-01-19T02:29:37.734Z,-3.82
2023-01-19T02:32:05.856Z,-3.83
2023-01-19T02:34:33.484Z,-3.91
2023-01-19T02:37:10.315Z,-3.79
2023-01-19T02:39:53.508Z,-3.78
2023-01-19T02:42:28.294Z,-3.76
2023-01-19T02:44:56.689Z,-3.75
2023-01-19T02:47:24.226Z,-3.79
2023-01-19T02:49:58.419Z,-3.83
2023-01-19T02:52:26.542Z,-3.86
2023-01-19T02:54:58.099Z,-3.85
2023-01-19T02:57:27.354Z,-3.91
2023-01-19T03:00:09.968Z,-3.94
2023-01-19T03:03:01.954Z,-3.91
2023-01-19T03:05:52.219Z,-3.92
2023-01-19T03:08:43.643Z,-3.84
2023-01-19T03:11:12.989Z,-3.88
2023-01-19T03:13:50.069Z,-3.97
2023-01-19T03:16:39.866Z,-3.92
2023-01-19T03:19:37.801Z,-3.97
2023-01-19T03:22:11.918Z,-3.97
2023-01-19T03:24:43.280Z,-3.94
2023-01-19T03:27:16.961Z,-4.10
2023-01-19T03:29:50.992Z,-4.07
2023-01-19T03:32:21.698Z,-4.04
2023-01-19T03:34:49.657Z,-4.10
2023-01-19T03:37:17.717Z,-4.07
2023-01-19T03:39:45.016Z,-4.10
2023-01-19T03:42:15.324Z,-4.14
2023-01-19T03:44:43.888Z,-4.10
2023-01-19T03:47:12.653Z,-4.05
2023-01-19T03:49:41.764Z,-4.10
2023-01-19T03:52:09.075Z,-4.09
2023-01-19T03:54:36.554Z,-4.04
2023-01-19T03:57:04.033Z,-4.14
2023-01-19T03:59:31.282Z,-4.14
2023-01-19T04:01:59.172Z,-4.17
2023-01-19T04:04:26.397Z,-4.18
2023-01-19T04:06:53.629Z,-4.18
2023-01-19T04:09:20.850Z,-4.17
2023-01-19T04:11:48.086Z,-4.14
2023-01-19T04:14:15.312Z,-4.16
2023-01-19T04:16:42.580Z,-4.34
2023-01-19T04:19:09.775Z,-4.29
2023-01-19T04:21:37.027Z,-4.32
2023-01-19T04:24:04.317Z,-4.32
2023-01-19T04:26:31.550Z,-4.28
2023-01-19T04:28:59.188Z,-4.28
2023-01-19T04:31:26.693Z,-4.37
2023-01-19T04:33:53.946Z,-4.36
2023-01-19T04:36:21.375Z,-4.38
2023-01-19T04:38:48.893Z,-4.38
2023-01-19T04:41:16.126Z,-4.36
2023-01-19T04:43:43.383Z,-4.49
2023-01-19T04:46:10.762Z,-4.38
2023-01-19T04:48:38.496Z,-4.45
2023-01-19T04:51:06.598Z,-4.48
2023-01-19T04:53:33.846Z,-4.56
2023-01-19T04:56:01.407Z,-4.40
2023-01-19T04:58:28.684Z,-4.39
2023-01-19T05:00:55.907Z,-4.29
2023-01-19T05:03:25.616Z,-4.38
2023-01-19T05:05:53.742Z,-4.35
2023-01-19T05:08:21.063Z,-4.45
2023-01-19T05:10:49.073Z,-4.35
2023-01-19T05:13:17.657Z,-4.28
2023-01-19T05:15:44.967Z,-4.32
2023-01-19T05:18:12.325Z,-4.36
2023-01-19T05:20:40.203Z,-4.46
2023-01-19T05:23:07.545Z,-4.59
2023-01-19T05:25:34.776Z,-4.52
2023-01-19T05:28:03.183Z,-4.59
2023-01-19T05:30:30.471Z,-4.56
2023-01-19T05:32:57.769Z,-4.58
2023-01-19T05:35:35.393Z,-4.59
2023-01-19T05:38:03.562Z,-4.61
2023-01-19T05:40:30.817Z,-4.78
2023-01-19T05:43:01.188Z,-4.82
2023-01-19T05:45:29.295Z,-4.93
2023-01-19T05:47:56.895Z,-4.78
2023-01-19T05:50:24.212Z,-4.74
2023-01-19T05:52:53.559Z,-4.70
2023-01-19T05:55:21.616Z,-4.68
2023-01-19T05:57:49.048Z,-4.62
2023-01-19T06:00:16.895Z,-4.60
2023-01-19T06:02:44.425Z,-4.57
2023-01-19T06:05:11.664Z,-4.59
2023-01-19T06:07:39.386Z,-4.55
2023-01-19T06:10:07.258Z,-4.41
2023-01-19T06:12:34.690Z,-4.39
2023-01-19T06:15:02.065Z,-4.45
2023-01-19T06:17:29.356Z,-4.50
2023-01-19T06:19:56.708Z,-4.51
2023-01-19T06:22:24.647Z,-4.50
2023-01-19T06:24:51.871Z,-4.42
2023-01-19T06:27:19.099Z,-4.47
2023-01-19T06:29:48.704Z,-4.36
2023-01-19T06:32:16.430Z,-4.35
2023-01-19T06:34:44.118Z,-4.39
2023-01-19T06:37:11.719Z,-4.45
2023-01-19T06:39:41.138Z,-4.49
2023-01-19T06:42:08.906Z,-4.53
2023-01-19T06:44:36.166Z,-4.61
2023-01-19T06:47:14.920Z,-4.60
2023-01-19T06:49:43.474Z,-4.57
2023-01-19T06:52:16.660Z,-4.60
2023-01-19T06:54:45.428Z,-4.64
2023-01-19T06:57:13.491Z,-4.65
2023-01-19T06:59:41.087Z,-4.62
2023-01-19T07:02:26.639Z,-4.61
2023-01-19T07:04:55.667Z,-4.50
2023-01-19T07:07:23.091Z,-4.40
2023-01-19T07:09:53.856Z,-4.44
2023-01-19T07:12:22.047Z,-4.36
2023-01-19T07:14:49.609Z,-4.34
2023-01-19T07:17:18.381Z,-4.42
2023-01-19T07:19:46.468Z,-4.39
2023-01-19T07:22:13.683Z,-4.40
2023-01-19T07:24:41.346Z,-4.45
2023-01-19T07:27:08.641Z,-4.39
2023-01-19T07:29:36.006Z,-4.28
2023-01-19T07:32:03.497Z,-4.22
2023-01-19T07:34:31.426Z,-4.20
2023-01-19T07:36:58.723Z,-4.22
2023-01-19T07:39:25.978Z,-4.10
2023-01-19T07:41:53.305Z,-4.05
2023-01-19T07:44:20.529Z,-4.01
2023-01-19T07:46:47.772Z,-3.94
2023-01-19T07:49:15.056Z,-3.87
2023-01-19T07:51:42.404Z,-3.84
2023-01-19T07:54:09.777Z,-3.71
2023-01-19T07:56:37.076Z,-3.77
2023-01-19T07:59:04.399Z,-3.66
2023-01-19T08:01:31.763Z,-3.73
2023-01-19T08:03:59.079Z,-3.62
2023-01-19T08:06:37.649Z,-3.57
2023-01-19T08:09:06.962Z,-3.57
2023-01-19T08:11:34.361Z,-3.43
2023-01-19T08:14:01.626Z,-3.44
2023-01-19T08:16:29.025Z,-3.39
2023-01-19T08:18:56.516Z,-3.22
2023-01-19T08:21:23.738Z,-3.19
2023-01-19T08:23:55.131Z,-3.09
2023-01-19T08:26:29.883Z,-3.05
2023-01-19T08:28:59.209Z,-2.91
2023-01-19T08:31:26.476Z,-2.87
2023-01-19T08:33:54.029Z,-2.79
2023-01-19T08:36:22.647Z,-2.60
2023-01-19T08:38:50.072Z,-2.53
2023-01-19T08:41:17.291Z,-2.45
2023-01-19T08:43:47.784Z,-2.32
2023-01-19T08:46:17.589Z,-2.26
2023-01-19T08:48:45.525Z,-2.05
2023-01-19T08:51:15.290Z,-1.98
2023-01-19T08:53:42.999Z,-1.88
2023-01-19T08:56:14.420Z,-1.74
2023-01-19T08:58:46.686Z,-1.61
2023-01-19T09:01:20.763Z,-1.59
2023-01-19T09:03:50.131Z,-1.54
2023-01-19T09:06:19.339Z,-1.48
2023-01-19T09:08:47.625Z,-1.37
2023-01-19T09:11:15.824Z,-1.35
2023-01-19T09:13:43.445Z,-1.22
2023-01-19T09:16:13.256Z,-1.14
2023-01-19T09:18:40.918Z,-1.17
2023-01-19T09:21:08.758Z,-1.06
2023-01-19T09:23:36.065Z,-0.95
2023-01-19T09:26:04.508Z,-0.65
2023-01-19T09:28:31.748Z,-0.61
2023-01-19T09:30:59.347Z,-0.56
2023-01-19T09:33:26.710Z,-0.47
2023-01-19T09:35:54.072Z,-0.52
2023-01-19T09:38:22.444Z,-0.46
2023-01-19T09:40:55.388Z,-0.25
2023-01-19T09:43:47.884Z,-0.17
2023-01-19T09:46:22.512Z,-0.17
2023-01-19T09:48:53.217Z,-0.12
2023-01-19T09:51:48.174Z,-0.17
2023-01-19T09:54:29.624Z,0.07
2023-01-19T09:56:56.861Z,0.12
2023-01-19T09:59:32.465Z,0.22
2023-01-19T10:02:36.904Z,0.38
2023-01-19T10:05:17.400Z,0.36
2023-01-19T10:08:13.377Z,0.49
2023-01-19T10:10:43.070Z,0.54
2023-01-19T10:13:32.193Z,0.83
2023-01-19T10:16:26.923Z,0.79
2023-01-19T10:18:57.337Z,0.76
2023-01-19T10:21:35.320Z,0.73
2023-01-19T10:24:07.096Z,0.63
2023-01-19T10:26:39.288Z,0.73
2023-01-19T10:29:11.778Z,0.81
2023-01-19T10:31:39.690Z,0.82
2023-01-19T10:34:07.151Z,0.95
2023-01-19T10:36:35.409Z,1.01
2023-01-19T10:39:05.401Z,1.07
2023-01-19T10:41:40.967Z,1.05
2023-01-19T10:44:10.901Z,1.08
2023-01-19T10:46:46.148Z,1.21
2023-01-19T10:49:31.310Z,1.12
2023-01-19T10:51:59.694Z,1.14
2023-01-19T10:54:28.439Z,1.29
2023-01-19T10:57:03.484Z,1.26
2023-01-19T10:59:52.503Z,1.28
2023-01-19T11:02:29.581Z,1.34
2023-01-19T11:04:59.177Z,1.42
2023-01-19T11:07:30.730Z,1.40
2023-01-19T11:10:16.139Z,1.39
2023-01-19T11:13:00.349Z,1.67
2023-01-19T11:15:44.076Z,1.55
2023-01-19T11:18:30.793Z,1.59
2023-01-19T11:21:11.309Z,1.55
2023-01-19T11:23:43.840Z,1.73
2023-01-19T11:26:35.224Z,1.69
2023-01-19T11:29:04.098Z,1.73
2023-01-19T11:31:34.781Z,1.71
2023-01-19T11:34:21.812Z,1.77
2023-01-19T11:36:59.617Z,1.88
2023-01-19T11:39:29.435Z,1.93
2023-01-19T11:42:02.947Z,1.90
2023-01-19T11:44:35.764Z,1.89
2023-01-19T11:47:06.250Z,1.95
2023-01-19T11:49:55.647Z,2.14
2023-01-19T11:52:49.777Z,2.36
2023-01-19T11:55:36.906Z,2.24
2023-01-19T11:58:05.271Z,2.17
2023-01-19T12:00:53.189Z,2.18
2023-01-19T12:03:37.402Z,2.24
2023-01-19T12:06:09.313Z,2.42
2023-01-19T12:08:56.048Z,2.31
2023-01-19T12:11:26.754Z,2.18
2023-01-19T12:13:54.845Z,2.07
2023-01-19T12:16:23.851Z,2.09
2023-01-19T12:19:06.842Z,2.06
2023-01-19T12:21:34.076Z,1.99
2023-01-19T12:24:18.336Z,2.00
2023-01-19T12:26:56.647Z,1.94
2023-01-19T12:29:27.929Z,2.01
2023-01-19T12:32:13.993Z,1.93
2023-01-19T12:34:42.700Z,1.93
2023-01-19T12:37:31.145Z,1.91
2023-01-19T12:40:00.199Z,1.89
2023-01-19T12:42:27.823Z,1.77
2023-01-19T12:45:20.488Z,1.73
2023-01-19T12:47:52.977Z,1.72
2023-01-19T12:50:23.359Z,1.62
2023-01-19T12:52:57.124Z,1.66
2023-01-19T12:55:36.712Z,1.58
2023-01-19T12:58:23.167Z,1.66
2023-01-19T13:01:11.612Z,1.63
2023-01-19T13:04:02.209Z,1.56
2023-01-19T13:06:47.986Z,1.54
2023-01-19T13:09:35.619Z,1.63
2023-01-19T13:12:21.628Z,1.60
2023-01-19T13:14:50.972Z,1.61
2023-01-19T13:17:25.475Z,1.57
2023-01-19T13:19:57.455Z,1.57
2023-01-19T13:22:47.183Z,1.55
2023-01-19T13:25:26.926Z,1.60
2023-01-19T13:27:54.721Z,1.61
2023-01-19T13:30:25.606Z,1.57
2023-01-19T13:32:54.659Z,1.49
2023-01-19T13:35:21.975Z,1.50
2023-01-19T13:37:49.654Z,1.53
2023-01-19T13:40:23.620Z,1.51
2023-01-19T13:42:52.800Z,1.54
2023-01-19T13:45:34.660Z,1.54
2023-01-19T13:48:17.858Z,1.47
2023-01-19T13:51:01.138Z,1.52
2023-01-19T13:53:29.514Z,1.52
2023-01-19T13:56:30.059Z,1.69
2023-01-19T13:59:12.702Z,1.72
2023-01-19T14:01:43.092Z,1.72
2023-01-19T14:04:31.355Z,1.79
2023-01-19T14:07:01.947Z,1.80
2023-01-19T14:09:31.882Z,1.91
2023-01-19T14:12:17.463Z,1.96
2023-01-19T14:14:49.533Z,1.94
2023-01-19T14:17:35.012Z,2.01
2023-01-19T14:20:02.305Z,2.07
2023-01-19T14:22:43.971Z,2.00
2023-01-19T14:25:34.152Z,2.02
2023-01-19T14:28:30.061Z,1.93
2023-01-19T14:31:03.082Z,2.00
2023-01-19T14:33:40.329Z,1.88
2023-01-19T14:36:33.566Z,1.88
2023-01-19T14:39:02.165Z,1.84
2023-01-19T14:41:44.506Z,1.79
2023-01-19T14:44:15.914Z,1.77
2023-01-19T14:46:47.859Z,1.62
2023-01-19T14:49:27.567Z,1.52
2023-01-19T14:51:56.288Z,1.60
2023-01-19T14:54:49.958Z,1.52
2023-01-19T14:57:17.193Z,1.40
2023-01-19T14:59:48.380Z,1.37
2023-01-19T15:02:16.283Z,1.31
2023-01-19T15:04:43.507Z,1.29
2023-01-19T15:07:19.760Z,1.33
2023-01-19T15:09:50.295Z,1.32
2023-01-19T15:12:20.656Z,1.33
2023-01-19T15:14:47.972Z,1.30
2023-01-19T15:17:25.430Z,1.37
2023-01-19T15:19:56.318Z,1.35
2023-01-19T15:22:26.820Z,1.30
2023-01-19T15:24:57.559Z,1.29
2023-01-19T15:27:29.937Z,1.21
2023-01-19T15:29:59.778Z,1.31
2023-01-19T15:32:27.332Z,1.19
2023-01-19T15:34:54.997Z,1.09
2023-01-19T15:37:25.092Z,1.08
2023-01-19T15:39:53.385Z,1.07
2023-01-19T15:42:23.404Z,1.05
2023-01-19T15:44:50.599Z,1.05
2023-01-19T15:47:20.294Z,1.15
2023-01-19T15:49:47.768Z,1.19
2023-01-19T15:52:22.762Z,1.12
2023-01-19T15:54:50.024Z,1.14
2023-01-19T15:57:18.624Z,1.15
2023-01-19T15:59:46.068Z,1.10
2023-01-19T16:02:13.420Z,1.04
2023-01-19T16:04:40.746Z,1.08
2023-01-19T16:07:08.167Z,1.07
2023-01-19T16:09:38.500Z,1.02
2023-01-19T16:12:05.907Z,0.99
2023-01-19T16:14:33.418Z,0.99
2023-01-19T16:17:01.734Z,1.10
2023-01-19T16:19:29.011Z,1.23
2023-01-19T16:21:56.213Z,1.27
2023-01-19T16:24:23.416Z,1.28
2023-01-19T16:26:50.852Z,1.25
2023-01-19T16:29:18.323Z,1.24
2023-01-19T16:31:46.301Z,1.18
2023-01-19T16:34:13.803Z,1.22
2023-01-19T16:36:42.009Z,1.10
2023-01-19T16:39:12.113Z,1.19
2023-01-19T16:41:39.658Z,1.21
2023-01-19T16:44:07.317Z,1.16
2023-01-19T16:46:36.833Z,1.22
2023-01-19T16:49:06.787Z,1.31
2023-01-19T16:51:34.652Z,1.23
2023-01-19T16:54:01.951Z,1.27
2023-01-19T16:56:29.705Z,1.21
2023-01-19T16:58:58.460Z,1.26
2023-01-19T17:01:37.630Z,1.17
2023-01-19T17:04:12.407Z,1.22
2023-01-19T17:06:41.252Z,1.11
2023-01-19T17:09:11.981Z,1.13
2023-01-19T17:11:41.927Z,1.14
2023-01-19T17:14:17.794Z,1.24
2023-01-19T17:16:45.131Z,1.27
2023-01-19T17:19:17.343Z,1.26
2023-01-19T17:21:48.969Z,1.29
2023-01-19T17:24:16.779Z,1.29
2023-01-19T17:26:48.593Z,1.40
2023-01-19T17:29:16.808Z,1.39
2023-01-19T17:31:44.591Z,1.38
2023-01-19T17:34:11.939Z,1.40
2023-01-19T17:36:40.934Z,1.34
2023-01-19T17:39:11.239Z,1.36
2023-01-19T17:41:38.479Z,1.38
2023-01-19T17:44:06.910Z,1.37
2023-01-19T17:46:37.031Z,1.46
2023-01-19T17:49:05.853Z,1.37
2023-01-19T17:51:33.285Z,1.42
2023-01-19T17:54:00.752Z,1.50
2023-01-19T17:56:30.414Z,1.46
2023-01-19T17:58:57.995Z,1.51
2023-01-19T18:01:30.229Z,1.41
2023-01-19T18:03:58.304Z,1.39
2023-01-19T18:06:25.684Z,1.45
2023-01-19T18:08:53.188Z,1.38
2023-01-19T18:11:21.171Z,1.43
2023-01-19T18:13:49.988Z,1.50
2023-01-19T18:16:20.688Z,1.40
2023-01-19T18:18:49.718Z,1.54
2023-01-19T18:21:17.796Z,1.58
2023-01-19T18:23:45.679Z,1.65
2023-01-19T18:26:20.113Z,1.68
2023-01-19T18:28:48.141Z,1.59
2023-01-19T18:31:18.259Z,1.61
2023-01-19T18:33:48.512Z,1.61
2023-01-19T18:36:16.360Z,1.66
2023-01-19T18:38:44.149Z,1.63
2023-01-19T18:41:16.569Z,1.58
2023-01-19T18:43:44.242Z,1.63
2023-01-19T18:46:12.797Z,1.71
2023-01-19T18:48:40.144Z,1.78
2023-01-19T18:51:12.968Z,1.77
2023-01-19T18:53:44.040Z,1.80
2023-01-19T18:56:15.956Z,1.79
2023-01-19T18:58:43.591Z,1.86
2023-01-19T19:01:33.134Z,1.92
2023-01-19T19:04:00.766Z,1.88
2023-01-19T19:06:28.796Z,1.88
2023-01-19T19:08:57.363Z,1.87
2023-01-19T19:11:25.329Z,1.92
2023-01-19T19:13:54.319Z,1.94
2023-01-19T19:16:21.654Z,1.90
2023-01-19T19:18:52.045Z,1.89
2023-01-19T19:21:22.260Z,1.91
2023-01-19T19:23:53.935Z,1.95
2023-01-19T19:26:21.435Z,1.95
2023-01-19T19:28:48.837Z,1.96
2023-01-19T19:31:20.514Z,1.96
2023-01-19T19:33:48.853Z,1.98
2023-01-19T19:36:16.373Z,2.02
2023-01-19T19:38:44.791Z,2.03
2023-01-19T19:41:21.484Z,2.02
2023-01-19T19:43:48.750Z,2.05
2023-01-19T19:46:19.945Z,2.07
2023-01-19T19:48:47.991Z,1.99
2023-01-19T19:51:18.967Z,2.05
2023-01-19T19:53:49.071Z,1.99
2023-01-19T19:56:20.916Z,2.01
2023-01-19T19:58:48.743Z,2.06
2023-01-19T20:01:25.337Z,2.02
2023-01-19T20:03:54.224Z,1.94
2023-01-19T20:06:24.174Z,1.97
2023-01-19T20:08:53.387Z,1.96
2023-01-19T20:11:27.096Z,1.92
2023-01-19T20:13:54.818Z,1.98
2023-01-19T20:16:23.552Z,2.02
2023-01-19T20:18:53.939Z,1.97
2023-01-19T20:21:23.913Z,2.03
2023-01-19T20:23:52.973Z,2.02
2023-01-19T20:26:26.476Z,2.08
2023-01-19T20:28:57.369Z,2.05
2023-01-19T20:31:29.986Z,2.07
2023-01-19T20:33:59.960Z,2.10
2023-01-19T20:36:28.881Z,2.12
2023-01-19T20:38:56.587Z,2.05
2023-01-19T20:41:24.113Z,2.05
2023-01-19T20:43:55.627Z,2.06
2023-01-19T20:46:23.105Z,2.09
2023-01-19T20:48:52.965Z,2.13
2023-01-19T20:51:20.437Z,2.13
2023-01-19T20:53:48.044Z,2.13
2023-01-19T20:56:18.479Z,2.15
2023-01-19T20:58:49.983Z,2.12
2023-01-19T21:01:20.623Z,2.09
2023-01-19T21:03:48.301Z,2.13
2023-01-19T21:06:16.736Z,2.17
2023-01-19T21:08:44.298Z,2.18
2023-01-19T21:11:13.652Z,2.15
2023-01-19T21:13:43.067Z,2.18
2023-01-19T21:16:13.155Z,2.13
2023-01-19T21:18:40.831Z,2.14
2023-01-19T21:21:14.977Z,2.09
2023-01-19T21:23:50.491Z,2.15
2023-01-19T21:26:17.864Z,2.17
2023-01-19T21:28:47.589Z,2.13
2023-01-19T21:31:17.445Z,2.16
2023-01-19T21:33:44.717Z,2.19
2023-01-19T21:36:12.024Z,2.10
2023-01-19T21:38:39.795Z,2.15
2023-01-19T21:41:09.734Z,2.17
2023-01-19T21:43:39.183Z,2.20
2023-01-19T21:46:11.680Z,2.20
2023-01-19T21:48:39.045Z,2.21
2023-01-19T21:51:06.373Z,2.23
2023-01-19T21:53:39.925Z,2.19
2023-01-19T21:56:10.825Z,2.21
2023-01-19T21:58:38.213Z,2.20
2023-01-19T22:01:08.760Z,2.25
2023-01-19T22:03:36.140Z,2.24
2023-01-19T22:06:09.171Z,2.24
2023-01-19T22:08:37.306Z,2.30
2023-01-19T22:11:09.245Z,2.29
2023-01-19T22:13:40.221Z,2.32
2023-01-19T22:16:10.272Z,2.32
2023-01-19T22:18:43.111Z,2.35
2023-01-19T22:21:21.690Z,2.34
2023-01-19T22:23:51.672Z,2.33
2023-01-19T22:26:19.201Z,2.36
2023-01-19T22:28:46.421Z,2.35
2023-01-19T22:31:15.859Z,2.31
2023-01-19T22:33:44.027Z,2.28
2023-01-19T22:36:19.720Z,2.29
2023-01-19T22:38:52.470Z,2.27
2023-01-19T22:41:48.123Z,2.26
2023-01-19T22:44:17.561Z,2.29
2023-01-19T22:46:44.763Z,2.30
2023-01-19T22:49:14.564Z,2.29
2023-01-19T22:51:42.413Z,2.29
2023-01-19T22:54:10.428Z,2.31
2023-01-19T22:56:38.769Z,2.31
2023-01-19T22:59:07.236Z,2.35
2023-01-19T23:01:37.542Z,2.39
2023-01-19T23:04:05.588Z,2.40
2023-01-19T23:06:34.860Z,2.40
2023-01-19T23:09:04.685Z,2.35
2023-01-19T23:11:37.950Z,2.35
2023-01-19T23:14:10.089Z,2.39
2023-01-19T23:16:37.333Z,2.39
2023-01-19T23:19:05.034Z,2.41
2023-01-19T23:21:32.487Z,2.43
2023-01-19T23:24:01.705Z,2.42
2023-01-19T23:26:43.963Z,2.43
2023-01-19T23:29:15.365Z,2.42
2023-01-19T23:31:48.256Z,2.45
2023-01-19T23:34:15.777Z,2.46
2023-01-19T23:36:43.701Z,2.46
2023-01-19T23:39:17.638Z,2.50
2023-01-19T23:41:45.119Z,2.50
2023-01-19T23:44:12.334Z,2.50
2023-01-19T23:46:39.798Z,2.47
2023-01-19T23:49:07.245Z,2.51
2023-01-19T23:51:35.061Z,2.53
2023-01-19T23:54:03.042Z,2.50
2023-01-19T23:56:35.061Z,2.51
2023-01-19T23:59:11.153Z,2.40
